Time;durP1;ratioP1;P1;durP2;ratioP2;P2;SDS_P1;SDS_P2;PMS_P1;PMS_P2;Temp;Humidity;BMP_temperature;BMP_pressure;BME280_temperature;BME280_humidity;BME280_pressure;Samples;Min_cycle;Max_cycle;Signal;HPM_P1;HPM_P2
2023/10/28 00:01:12;;;;;;;5.47;2.97;;;12.30;99.90;;;;;;4765808;30;20032;-91
2023/10/28 00:03:38;;;;;;;;;;;12.30;99.90;;;;;;4757124;30;20032;-93
2023/10/28 00:06:04;;;;;;;7.18;2.83;;;12.30;99.90;;;;;;4753883;30;19929;-93
2023/10/28 00:08:30;;;;;;;5.85;2.90;;;12.30;99.90;;;;;;4739683;30;20033;-94
2023/10/28 00:10:56;;;;;;;6.47;3.22;;;12.30;99.90;;;;;;4744835;30;20138;-91
2023/10/28 00:13:22;;;;;;;7.30;3.20;;;12.20;99.90;;;;;;4751672;30;20059;-92
2023/10/28 00:15:47;;;;;;;6.63;2.80;;;12.30;99.90;;;;;;4739516;30;20085;-93
2023/10/28 00:18:14;;;;;;;8.52;3.53;;;12.30;99.90;;;;;;4754109;30;20109;-92
2023/10/28 00:20:44;;;;;;;6.82;3.08;;;12.30;99.90;;;;;;4754323;30;20036;-92
2023/10/28 00:23:11;;;;;;;6.55;3.17;;;12.30;99.90;;;;;;4739397;30;20457;-94
2023/10/28 00:25:37;;;;;;;5.93;2.97;;;12.30;99.90;;;;;;4725379;30;20044;-93
2023/10/28 00:28:03;;;;;;;6.68;3.10;;;12.30;99.90;;;;;;4754035;30;20043;-89
2023/10/28 00:30:29;;;;;;;6.65;2.88;;;12.30;99.90;;;;;;4754273;30;20027;-92
2023/10/28 00:32:59;;;;;;;7.13;3.03;;;12.30;99.90;;;;;;4739306;30;20032;-92
2023/10/28 00:35:25;;;;;;;6.43;3.10;;;12.30;99.90;;;;;;4754110;30;20067;-93
2023/10/28 00:37:51;;;;;;;6.50;2.83;;;12.30;99.90;;;;;;4762506;30;20473;-92
2023/10/28 00:40:17;;;;;;;6.32;3.03;;;12.30;99.90;;;;;;4760169;30;20028;-93
2023/10/28 00:42:45;;;;;;;6.90;2.85;;;12.30;99.90;;;;;;4754067;30;20518;-92
2023/10/28 00:45:13;;;;;;;7.57;2.95;;;12.30;99.90;;;;;;4754211;30;20036;-93
2023/10/28 00:47:40;;;;;;;6.05;2.67;;;12.30;99.90;;;;;;4755289;30;20040;-94
2023/10/28 00:50:12;;;;;;;5.07;2.83;;;12.30;99.90;;;;;;4759510;30;20073;-90
2023/10/28 00:52:39;;;;;;;5.82;3.03;;;12.30;99.90;;;;;;4779916;30;20028;-92
2023/10/28 00:55:09;;;;;;;8.30;2.72;;;12.30;99.90;;;;;;4776470;30;20020;-92
2023/10/28 00:57:35;;;;;;;5.72;2.75;;;12.30;99.90;;;;;;4776061;30;20029;-93
2023/10/28 01:00:02;;;;;;;11.77;3.25;;;12.30;99.90;;;;;;4776359;30;20040;-93
2023/10/28 01:02:27;;;;;;;7.28;2.88;;;12.30;99.90;;;;;;4760748;30;20043;-93
2023/10/28 01:04:54;;;;;;;5.80;2.95;;;12.30;99.90;;;;;;4737533;30;20028;-92
2023/10/28 01:07:19;;;;;;;7.28;2.67;;;12.30;99.90;;;;;;4755009;30;20063;-91
2023/10/28 01:09:47;;;;;;;6.07;2.55;;;12.30;99.90;;;;;;4753457;30;20053;-92
2023/10/28 01:12:13;;;;;;;6.25;2.63;;;12.30;99.90;;;;;;4760370;30;20031;-92
2023/10/28 01:14:40;;;;;;;6.45;2.67;;;12.30;99.90;;;;;;4756341;30;20476;-92
2023/10/28 01:17:07;;;;;;;7.03;2.70;;;12.40;99.90;;;;;;4756215;30;20028;-93
2023/10/28 01:19:34;;;;;;;7.72;3.00;;;12.40;99.90;;;;;;4757065;30;20034;-94
2023/10/28 01:22:00;;;;;;;7.80;2.60;;;12.40;99.90;;;;;;4735494;30;20037;-93
2023/10/28 01:24:28;;;;;;;6.47;2.80;;;12.40;99.90;;;;;;4722580;30;20540;-94
2023/10/28 01:26:54;;;;;;;5.28;2.80;;;12.30;99.90;;;;;;4753203;30;20098;-94
2023/10/28 01:29:21;;;;;;;3.85;2.25;;;12.40;99.90;;;;;;4752867;30;20032;-94
2023/10/28 01:31:47;;;;;;;6.45;2.90;;;12.40;99.90;;;;;;4753806;30;20039;-94
2023/10/28 01:34:12;;;;;;;8.73;2.55;;;12.40;99.90;;;;;;4737718;30;20037;-91
2023/10/28 01:36:38;;;;;;;5.57;2.70;;;12.40;99.90;;;;;;4743738;30;20023;-93
2023/10/28 01:39:04;;;;;;;6.28;2.35;;;12.40;99.90;;;;;;4770912;30;20039;-91
2023/10/28 01:41:30;;;;;;;4.75;2.60;;;12.40;99.90;;;;;;4739488;30;20063;-92
2023/10/28 01:43:55;;;;;;;6.40;2.67;;;12.40;99.90;;;;;;4752914;30;20126;-92
2023/10/28 01:46:21;;;;;;;7.63;3.15;;;12.40;99.90;;;;;;4752280;30;20048;-92
2023/10/28 01:48:47;;;;;;;5.28;2.83;;;12.40;99.90;;;;;;4737749;30;20409;-94
2023/10/28 01:51:16;;;;;;;5.65;2.38;;;12.50;99.90;;;;;;4752131;30;20119;-93
2023/10/28 01:53:42;;;;;;;6.00;2.50;;;12.50;99.90;;;;;;4739525;30;20039;-94
2023/10/28 01:56:07;;;;;;;8.65;2.53;;;12.50;99.90;;;;;;4752437;30;20028;-94
2023/10/28 01:58:33;;;;;;;6.47;2.47;;;12.50;99.90;;;;;;4753704;30;20476;-93
2023/10/28 02:01:01;;;;;;;6.15;2.20;;;12.50;99.90;;;;;;4764995;30;20127;-92
2023/10/28 02:03:27;;;;;;;6.43;2.35;;;12.50;99.90;;;;;;4770170;30;20035;-92
2023/10/28 02:05:52;;;;;;;6.90;2.42;;;12.50;99.90;;;;;;4752951;30;20064;-95
2023/10/28 02:08:18;;;;;;;3.58;2.33;;;12.50;99.90;;;;;;4755606;30;20035;-93
2023/10/28 02:10:44;;;;;;;5.75;2.97;;;12.50;99.90;;;;;;4746911;30;20056;-93
2023/10/28 02:13:10;;;;;;;5.57;2.20;;;12.50;99.90;;;;;;4753723;30;20119;-92
2023/10/28 02:15:36;;;;;;;5.60;2.53;;;12.50;99.90;;;;;;4752550;30;20040;-93
2023/10/28 02:18:05;;;;;;;3.53;1.98;;;12.50;99.90;;;;;;4753611;30;20119;-92
2023/10/28 02:20:33;;;;;;;6.85;2.50;;;12.50;99.90;;;;;;4738634;30;20028;-92
2023/10/28 02:22:59;;;;;;;4.55;2.40;;;12.50;99.90;;;;;;4752748;30;20026;-92
2023/10/28 02:25:24;;;;;;;5.20;2.30;;;12.50;99.90;;;;;;4753475;30;20055;-91
2023/10/28 02:27:50;;;;;;;7.15;2.47;;;12.50;99.90;;;;;;4769847;30;20418;-90
2023/10/28 02:30:16;;;;;;;4.30;2.13;;;12.50;99.90;;;;;;4767058;30;20047;-92
2023/10/28 02:32:41;;;;;;;4.75;2.20;;;12.50;99.90;;;;;;4761802;30;20026;-91
2023/10/28 02:35:07;;;;;;;4.45;2.13;;;12.50;99.90;;;;;;4783469;29;20022;-93
2023/10/28 02:37:33;;;;;;;4.57;2.00;;;12.50;99.90;;;;;;4776663;30;20016;-95
2023/10/28 02:39:59;;;;;;;4.28;1.90;;;12.50;99.90;;;;;;4772779;30;20062;-91
2023/10/28 02:42:24;;;;;;;3.67;2.10;;;12.50;99.90;;;;;;4742228;30;20028;-92
2023/10/28 02:44:51;;;;;;;4.18;1.88;;;12.50;99.90;;;;;;4751111;30;20046;-92
2023/10/28 02:47:17;;;;;;;4.28;2.05;;;12.50;99.90;;;;;;4723889;30;20391;-94
2023/10/28 02:49:42;;;;;;;3.85;2.00;;;12.50;99.90;;;;;;4738884;30;20057;-91
2023/10/28 02:52:10;;;;;;;4.97;2.30;;;12.50;99.90;;;;;;4769702;30;20516;-92
2023/10/28 02:54:36;;;;;;;3.35;1.77;;;12.50;99.90;;;;;;4774253;30;20028;-92
2023/10/28 02:57:03;;;;;;;3.90;1.65;;;12.40;99.90;;;;;;4752770;30;20044;-94
2023/10/28 02:59:29;;;;;;;4.03;1.88;;;12.40;99.90;;;;;;4755355;30;20029;-95
2023/10/28 03:01:55;;;;;;;4.00;1.90;;;12.40;99.90;;;;;;4737285;30;20044;-92
2023/10/28 03:04:21;;;;;;;3.75;1.73;;;12.50;99.90;;;;;;4738033;30;20032;-94
2023/10/28 03:06:47;;;;;;;3.63;1.60;;;12.50;99.90;;;;;;4754516;30;20048;-93
2023/10/28 03:09:12;;;;;;;3.80;1.50;;;12.40;99.90;;;;;;4755496;30;20032;-93
2023/10/28 03:11:38;;;;;;;3.88;1.77;;;12.40;99.90;;;;;;4755235;30;20044;-95
2023/10/28 03:14:05;;;;;;;5.28;2.10;;;12.50;99.90;;;;;;4766655;30;20040;-93
2023/10/28 03:16:31;;;;;;;3.50;1.88;;;12.50;99.90;;;;;;4755206;30;20032;-93
2023/10/28 03:18:57;;;;;;;2.80;1.63;;;12.50;99.90;;;;;;4729205;30;20114;-94
2023/10/28 03:21:23;;;;;;;3.10;1.80;;;12.50;99.90;;;;;;4738214;30;20056;-92
2023/10/28 03:23:49;;;;;;;5.53;1.65;;;12.50;99.90;;;;;;4736934;30;20043;-92
2023/10/28 03:26:15;;;;;;;3.10;1.60;;;12.50;99.90;;;;;;4740214;30;20048;-92
2023/10/28 03:28:41;;;;;;;4.20;2.03;;;12.50;99.90;;;;;;4757042;30;20085;-94
2023/10/28 03:31:11;;;;;;;4.65;1.70;;;12.50;99.90;;;;;;4758664;30;20040;-93
2023/10/28 03:33:37;;;;;;;5.15;2.03;;;12.50;99.90;;;;;;4756967;30;20032;-94
2023/10/28 03:36:05;;;;;;;4.15;1.70;;;12.50;99.90;;;;;;4760594;30;20035;-92
2023/10/28 03:38:33;;;;;;;2.15;1.50;;;12.50;99.90;;;;;;4753201;30;20052;-93
2023/10/28 03:41:01;;;;;;;4.05;1.75;;;12.50;99.90;;;;;;4754855;30;20523;-94
2023/10/28 03:43:27;;;;;;;2.33;1.85;;;12.40;99.90;;;;;;4740227;30;20126;-92
2023/10/28 03:45:52;;;;;;;2.78;1.40;;;12.40;99.90;;;;;;4755256;30;20410;-91
2023/10/28 03:48:18;;;;;;;3.55;1.55;;;12.40;99.90;;;;;;4740159;30;20068;-93
2023/10/28 03:50:44;;;;;;;3.63;1.73;;;12.50;99.90;;;;;;4754827;30;20067;-92
2023/10/28 03:53:10;;;;;;;5.22;1.50;;;12.40;99.90;;;;;;4739744;30;20473;-94
2023/10/28 03:55:35;;;;;;;2.20;1.33;;;12.40;99.90;;;;;;4754272;30;20037;-93
2023/10/28 03:58:02;;;;;;;2.20;1.30;;;12.40;99.90;;;;;;4740495;30;20032;-92
2023/10/28 04:00:28;;;;;;;2.05;1.20;;;12.40;99.90;;;;;;4740077;30;20419;-92
2023/10/28 04:02:53;;;;;;;2.50;1.48;;;12.40;99.90;;;;;;4754660;30;20043;-92
2023/10/28 04:05:19;;;;;;;1.85;1.40;;;12.40;99.90;;;;;;4755756;30;20047;-94
2023/10/28 04:07:45;;;;;;;3.08;1.45;;;12.40;99.90;;;;;;4770281;30;20532;-92
2023/10/28 04:10:11;;;;;;;2.63;1.42;;;12.40;99.90;;;;;;4790385;29;20019;-92
2023/10/28 04:12:36;;;;;;;1.77;1.02;;;12.40;99.90;;;;;;4779878;29;20027;-93
2023/10/28 04:15:06;;;;;;;2.85;1.35;;;12.40;99.90;;;;;;4780560;30;20072;-92
2023/10/28 04:17:34;;;;;;;1.13;0.90;;;12.40;99.90;;;;;;4786579;29;20044;-93
2023/10/28 04:20:00;;;;;;;2.78;1.10;;;12.40;99.90;;;;;;4726650;30;20035;-92
2023/10/28 04:22:26;;;;;;;3.83;1.20;;;12.40;99.90;;;;;;4728315;30;20099;-94
2023/10/28 04:24:52;;;;;;;2.00;1.10;;;12.40;99.90;;;;;;4767309;30;20046;-93
2023/10/28 04:27:17;;;;;;;1.20;1.08;;;12.40;99.90;;;;;;4742392;30;20127;-93
2023/10/28 04:29:43;;;;;;;2.25;1.30;;;12.40;99.90;;;;;;4771727;30;20042;-94
2023/10/28 04:32:09;;;;;;;3.72;1.38;;;12.40;99.90;;;;;;4757406;30;20066;-93
2023/10/28 04:34:37;;;;;;;2.60;1.50;;;12.40;99.90;;;;;;4756012;30;20461;-89
2023/10/28 04:37:03;;;;;;;4.45;1.63;;;12.40;99.90;;;;;;4755038;30;20028;-93
2023/10/28 04:39:28;;;;;;;3.47;1.30;;;12.40;99.90;;;;;;4758146;30;20556;-92
2023/10/28 04:41:54;;;;;;;2.60;1.30;;;12.40;99.90;;;;;;4771478;30;20155;-92
2023/10/28 04:44:20;;;;;;;2.75;1.10;;;12.50;99.90;;;;;;4755900;30;20025;-93
2023/10/28 04:46:45;;;;;;;2.90;1.15;;;12.50;99.90;;;;;;4739070;30;20132;-94
2023/10/28 04:49:11;;;;;;;2.55;1.63;;;12.40;99.90;;;;;;4749380;30;20490;-94
2023/10/28 04:51:37;;;;;;;3.63;1.75;;;12.40;99.90;;;;;;4754484;30;20053;-90
2023/10/28 04:54:03;;;;;;;3.42;1.75;;;12.40;99.90;;;;;;4754460;30;20040;-92
2023/10/28 04:56:29;;;;;;;4.60;1.60;;;12.50;99.90;;;;;;4754861;30;20058;-93
2023/10/28 04:58:55;;;;;;;3.83;1.45;;;12.50;99.90;;;;;;4739015;30;20461;-93
2023/10/28 05:01:21;;;;;;;2.65;1.63;;;12.50;99.90;;;;;;4740709;30;20124;-94
2023/10/28 05:03:46;;;;;;;2.35;1.30;;;12.40;99.90;;;;;;4735856;30;20108;-92
2023/10/28 05:06:12;;;;;;;4.43;1.80;;;12.40;99.90;;;;;;4737368;30;20070;-93
2023/10/28 05:08:38;;;;;;;4.07;1.50;;;12.40;99.90;;;;;;4749267;30;20116;-93
2023/10/28 05:11:04;;;;;;;3.13;1.70;;;12.40;99.90;;;;;;4753323;30;20090;-94
2023/10/28 05:13:30;;;;;;;4.05;1.67;;;12.50;99.90;;;;;;4753621;30;20036;-92
2023/10/28 05:15:56;;;;;;;3.65;1.63;;;12.40;99.90;;;;;;4736592;30;20040;-93
2023/10/28 05:18:23;;;;;;;3.60;2.00;;;12.50;99.90;;;;;;4721050;30;20024;-93
2023/10/28 05:20:48;;;;;;;3.08;1.67;;;12.50;99.90;;;;;;4735072;30;20162;-94
2023/10/28 05:23:14;;;;;;;3.08;1.65;;;12.50;99.90;;;;;;4748434;30;20123;-93
2023/10/28 05:25:40;;;;;;;3.42;1.30;;;12.50;99.90;;;;;;4738588;30;20458;-92
2023/10/28 05:28:06;;;;;;;1.60;1.30;;;12.40;99.90;;;;;;4743396;30;20497;-93
2023/10/28 05:30:31;;;;;;;3.30;1.63;;;12.50;99.90;;;;;;4735434;30;20052;-93
2023/10/28 05:32:57;;;;;;;2.13;1.60;;;12.50;99.90;;;;;;4736564;30;20386;-93
2023/10/28 05:35:23;;;;;;;4.40;1.67;;;12.40;99.90;;;;;;4735677;30;20033;-92
2023/10/28 05:37:48;;;;;;;3.72;1.70;;;12.50;99.90;;;;;;4744731;30;20040;-92
2023/10/28 05:40:14;;;;;;;2.60;1.55;;;12.50;99.90;;;;;;4745887;30;20086;-93
2023/10/28 05:42:41;;;;;;;2.28;1.60;;;12.50;99.90;;;;;;4721417;30;20032;-93
2023/10/28 05:45:08;;;;;;;2.88;1.67;;;12.50;99.90;;;;;;4755611;30;20044;-92
2023/10/28 05:47:37;;;;;;;3.42;1.50;;;12.50;99.90;;;;;;4760849;30;20020;-94
2023/10/28 05:50:05;;;;;;;3.53;1.77;;;12.50;99.90;;;;;;4772786;30;20121;-91
2023/10/28 05:52:32;;;;;;;3.95;1.70;;;12.50;99.90;;;;;;4774289;30;20039;-94
2023/10/28 05:54:58;;;;;;;4.18;1.70;;;12.50;99.90;;;;;;4761902;29;20040;-92
2023/10/28 05:57:24;;;;;;;2.33;1.48;;;12.50;99.90;;;;;;4753403;30;20060;-93
2023/10/28 05:59:50;;;;;;;2.15;1.63;;;12.50;99.90;;;;;;4738113;30;20051;-93
2023/10/28 06:02:16;;;;;;;3.15;1.58;;;12.50;99.90;;;;;;4737903;30;20465;-94
2023/10/28 06:04:42;;;;;;;3.38;1.75;;;12.50;99.90;;;;;;4737650;30;20481;-93
2023/10/28 06:07:07;;;;;;;3.13;1.58;;;12.50;99.90;;;;;;4746805;30;20052;-93
2023/10/28 06:09:33;;;;;;;3.55;1.73;;;12.50;99.90;;;;;;4763654;30;20036;-91
2023/10/28 06:11:59;;;;;;;3.72;1.90;;;12.50;99.90;;;;;;4726790;30;20394;-94
2023/10/28 06:14:25;;;;;;;4.15;1.60;;;12.50;99.90;;;;;;4739803;30;20493;-93
2023/10/28 06:16:51;;;;;;;2.28;1.63;;;12.40;99.90;;;;;;4756061;30;20036;-92
2023/10/28 06:19:21;;;;;;;2.15;1.75;;;12.50;99.90;;;;;;4741840;30;20097;-95
2023/10/28 06:21:47;;;;;;;3.00;1.57;;;12.50;99.90;;;;;;4765596;30;20530;-90
2023/10/28 06:24:12;;;;;;;5.50;2.10;;;12.50;99.90;;;;;;4735215;30;20302;-91
2023/10/28 06:26:39;;;;;;;2.70;1.92;;;12.50;99.90;;;;;;4754348;30;20040;-92
2023/10/28 06:29:05;;;;;;;2.60;1.63;;;12.50;99.90;;;;;;4768686;30;20031;-93
2023/10/28 06:31:32;;;;;;;3.90;1.75;;;12.50;99.90;;;;;;4761268;30;20539;-91
2023/10/28 06:34:00;;;;;;;4.30;1.77;;;12.50;99.90;;;;;;4765886;30;20036;-89
2023/10/28 06:36:28;;;;;;;4.95;1.90;;;12.50;99.90;;;;;;4764307;30;20027;-91
2023/10/28 06:38:59;;;;;;;3.80;2.10;;;12.50;99.90;;;;;;4758257;30;20020;-89
2023/10/28 06:41:25;;;;;;;3.35;1.60;;;12.50;99.90;;;;;;4768970;30;20329;-89
2023/10/28 06:43:53;;;;;;;2.55;1.80;;;12.50;99.90;;;;;;4755731;30;20407;-90
2023/10/28 06:46:19;;;;;;;4.38;1.83;;;12.50;99.90;;;;;;4760601;30;20047;-88
2023/10/28 06:48:46;;;;;;;3.00;1.70;;;12.50;99.90;;;;;;4756331;30;20040;-89
2023/10/28 06:51:12;;;;;;;2.58;1.67;;;12.50;99.90;;;;;;4741457;30;20098;-91
2023/10/28 06:53:41;;;;;;;1.92;1.52;;;12.50;99.90;;;;;;4756505;30;20554;-91
2023/10/28 06:56:15;;;;;;;5.25;1.65;;;12.50;99.90;;;;;;4740485;30;20547;-91
2023/10/28 06:58:41;;;;;;;3.30;1.40;;;12.50;99.90;;;;;;4756322;30;20035;-90
2023/10/28 07:01:09;;;;;;;3.80;1.70;;;12.50;99.90;;;;;;4740755;30;20115;-90
2023/10/28 07:03:37;;;;;;;3.38;1.50;;;12.50;99.90;;;;;;4727237;30;20519;-90
2023/10/28 07:06:04;;;;;;;3.58;1.90;;;12.50;99.90;;;;;;4755291;30;20040;-89
2023/10/28 07:08:30;;;;;;;3.63;1.55;;;12.60;99.90;;;;;;4756715;30;20025;-91
2023/10/28 07:10:57;;;;;;;3.35;1.67;;;12.60;99.90;;;;;;4763881;30;20063;-90
2023/10/28 07:13:22;;;;;;;3.55;1.92;;;12.60;99.90;;;;;;4759010;30;20409;-89
2023/10/28 07:15:50;;;;;;;2.72;1.20;;;12.60;99.90;;;;;;4758682;30;20112;-91
2023/10/28 07:18:18;;;;;;;3.33;1.63;;;12.60;99.90;;;;;;4750405;30;20055;-90
2023/10/28 07:20:43;;;;;;;1.88;1.23;;;12.50;99.90;;;;;;4756947;30;20084;-92
2023/10/28 07:23:09;;;;;;;3.35;1.63;;;12.60;99.90;;;;;;4769097;30;20086;-92
2023/10/28 07:25:35;;;;;;;4.30;1.45;;;12.60;99.90;;;;;;4771025;30;20057;-91
2023/10/28 07:28:00;;;;;;;4.65;1.50;;;12.60;99.90;;;;;;4748529;30;20013;-88
2023/10/28 07:30:26;;;;;;;3.97;1.38;;;12.60;99.90;;;;;;4754444;30;20032;-93
2023/10/28 07:32:52;;;;;;;4.57;1.52;;;12.60;99.90;;;;;;4757701;30;20031;-92
2023/10/28 07:35:17;;;;;;;3.05;1.42;;;12.60;99.90;;;;;;4740803;30;20040;-90
2023/10/28 07:37:43;;;;;;;3.20;1.70;;;12.60;99.90;;;;;;4756530;30;20127;-92
2023/10/28 07:40:11;;;;;;;4.05;1.52;;;12.70;99.90;;;;;;4750865;30;20040;-90
2023/10/28 07:42:37;;;;;;;3.17;1.40;;;12.70;99.90;;;;;;4769323;30;20044;-90
2023/10/28 07:45:04;;;;;;;2.70;1.25;;;12.70;99.90;;;;;;4755555;30;20036;-91
2023/10/28 07:47:31;;;;;;;3.22;1.30;;;12.70;99.90;;;;;;4740110;30;20028;-88
2023/10/28 07:49:57;;;;;;;2.92;1.40;;;12.70;99.90;;;;;;4739938;30;20060;-92
2023/10/28 07:52:22;;;;;;;3.95;1.45;;;12.70;99.90;;;;;;4754489;30;20478;-91
2023/10/28 07:54:48;;;;;;;5.78;1.30;;;12.70;99.90;;;;;;4742701;30;20118;-90
2023/10/28 07:57:14;;;;;;;3.58;1.40;;;12.80;99.90;;;;;;4754095;30;20038;-90
2023/10/28 07:59:39;;;;;;;2.67;1.20;;;12.80;99.90;;;;;;4772309;30;20036;-91
2023/10/28 08:02:05;;;;;;;5.55;1.40;;;12.80;99.90;;;;;;4750693;30;20094;-89
2023/10/28 08:04:31;;;;;;;4.65;1.30;;;12.90;99.90;;;;;;4754328;30;20115;-92
2023/10/28 08:07:00;;;;;;;3.55;1.52;;;12.90;99.90;;;;;;4753488;30;20102;-92
2023/10/28 08:09:28;;;;;;;2.38;1.38;;;12.90;99.90;;;;;;4739601;30;20028;-90
2023/10/28 08:11:53;;;;;;;3.17;1.27;;;13.00;99.90;;;;;;4754355;30;20075;-92
2023/10/28 08:14:19;;;;;;;2.72;1.35;;;13.00;99.90;;;;;;4754296;30;20032;-91
2023/10/28 08:16:52;;;;;;;3.30;1.45;;;13.00;99.90;;;;;;4754185;30;20068;-91
2023/10/28 08:19:58;;;;;;;3.95;1.30;;;13.00;99.90;;;;;;4753973;30;20032;-89
2023/10/28 08:22:24;;;;;;;3.45;1.23;;;13.10;99.90;;;;;;4738663;30;20098;-90
2023/10/28 08:24:53;;;;;;;1.52;1.40;;;13.00;99.90;;;;;;4759222;30;20024;-90
2023/10/28 08:27:19;;;;;;;2.78;1.50;;;13.10;99.90;;;;;;4759189;30;20048;-90
2023/10/28 08:30:37;;;;;;;5.55;1.55;;;13.10;99.90;;;;;;4753745;30;20040;-90
2023/10/28 08:33:03;;;;;;;2.20;1.27;;;13.10;99.90;;;;;;4692502;30;20048;-91
2023/10/28 08:35:28;;;;;;;2.33;1.17;;;13.10;99.90;;;;;;4748412;30;20040;-90
2023/10/28 08:37:55;;;;;;;4.13;1.50;;;13.10;99.90;;;;;;4736484;30;20146;-89
2023/10/28 08:40:20;;;;;;;2.95;1.38;;;13.20;99.90;;;;;;4745652;30;20040;-90
2023/10/28 08:42:46;;;;;;;3.10;1.35;;;13.20;99.90;;;;;;4739460;30;20040;-89
2023/10/28 08:45:15;;;;;;;3.55;1.40;;;13.20;99.90;;;;;;4753774;30;20422;-89
2023/10/28 08:47:42;;;;;;;3.30;1.77;;;13.20;99.90;;;;;;4755085;30;20024;-90
2023/10/28 08:50:09;;;;;;;3.00;1.40;;;13.20;99.90;;;;;;4743086;30;20065;-89
2023/10/28 08:52:39;;;;;;;1.75;1.17;;;13.20;99.90;;;;;;4750496;30;20044;-91
2023/10/28 08:55:10;;;;;;;2.75;1.27;;;13.30;99.90;;;;;;4737156;30;20029;-90
2023/10/28 08:57:41;;;;;;;7.07;1.75;;;13.30;99.90;;;;;;4738243;30;20086;-89
2023/10/28 09:00:14;;;;;;;1.88;1.20;;;13.30;99.90;;;;;;4751492;30;20055;-91
2023/10/28 09:02:44;;;;;;;6.00;1.40;;;13.40;99.90;;;;;;4761052;30;20024;-90
2023/10/28 09:05:13;;;;;;;3.97;1.23;;;13.40;99.90;;;;;;4775953;30;20100;-89
2023/10/28 09:07:38;;;;;;;3.50;1.33;;;13.40;99.90;;;;;;4757946;30;20012;-91
2023/10/28 09:10:04;;;;;;;2.45;1.42;;;13.40;99.90;;;;;;4739891;30;20041;-91
2023/10/28 09:12:36;;;;;;;2.47;1.20;;;13.40;99.90;;;;;;4770522;30;20028;-89
2023/10/28 09:15:03;;;;;;;3.65;1.65;;;13.50;99.90;;;;;;4771967;30;20048;-91
2023/10/28 09:17:31;;;;;;;4.43;1.23;;;13.50;99.90;;;;;;4743322;30;20059;-90
2023/10/28 09:19:57;;;;;;;4.30;1.13;;;13.60;99.90;;;;;;4738653;30;20032;-90
2023/10/28 09:22:24;;;;;;;3.28;1.63;;;13.70;99.90;;;;;;4739275;30;20027;-91
2023/10/28 09:24:53;;;;;;;2.38;1.50;;;13.70;99.90;;;;;;4739422;30;20131;-91
2023/10/28 09:27:19;;;;;;;6.50;1.85;;;13.80;99.90;;;;;;4735711;30;20079;-90
2023/10/28 09:29:45;;;;;;;3.13;1.45;;;13.80;99.90;;;;;;4763477;30;20066;-90
2023/10/28 09:32:11;;;;;;;4.32;1.45;;;13.80;99.90;;;;;;4741642;30;20039;-90
2023/10/28 09:34:41;;;;;;;4.30;1.50;;;13.80;99.90;;;;;;4758938;30;20035;-90
2023/10/28 09:37:10;;;;;;;3.70;1.40;;;13.80;99.90;;;;;;4731132;30;20501;-93
2023/10/28 09:39:41;;;;;;;3.38;1.40;;;13.90;99.90;;;;;;4736396;30;20033;-90
2023/10/28 09:42:07;;;;;;;;;;;14.00;99.90;;;;;;4753380;30;20476;-89
2023/10/28 09:44:34;;;;;;;2.88;1.33;;;13.90;99.90;;;;;;4762966;30;19914;-90
2023/10/28 09:47:05;;;;;;;2.88;1.30;;;14.00;99.90;;;;;;4755747;30;20085;-90
2023/10/28 09:49:31;;;;;;;3.58;1.48;;;14.00;99.90;;;;;;4760701;30;20040;-89
2023/10/28 09:52:07;;;;;;;1.52;1.10;;;14.10;99.90;;;;;;4738410;30;20090;-90
2023/10/28 09:54:36;;;;;;;4.00;1.55;;;14.10;99.90;;;;;;4765519;30;20032;-91
2023/10/28 09:57:02;;;;;;;3.53;1.30;;;14.10;99.90;;;;;;4755642;30;20062;-90
2023/10/28 09:59:34;;;;;;;5.38;1.90;;;14.10;99.90;;;;;;4751393;30;20446;-89
2023/10/28 10:02:01;;;;;;;3.55;1.38;;;14.20;99.90;;;;;;4753628;30;20028;-91
2023/10/28 10:04:49;;;;;;;4.90;1.38;;;14.20;99.90;;;;;;4752660;30;20059;-91
2023/10/28 10:07:18;;;;;;;5.45;1.20;;;14.20;99.90;;;;;;4737844;30;20126;-91
2023/10/28 10:09:47;;;;;;;3.13;1.20;;;14.30;99.90;;;;;;4752666;30;20035;-90
2023/10/28 10:12:14;;;;;;;3.70;1.40;;;14.30;99.90;;;;;;4738022;30;20032;-90
2023/10/28 10:14:47;;;;;;;4.50;1.42;;;14.30;99.90;;;;;;4750231;30;20055;-90
2023/10/28 10:17:38;;;;;;;4.70;1.25;;;14.30;99.90;;;;;;4740669;30;20089;-90
2023/10/28 10:20:07;;;;;;;2.85;1.33;;;14.40;99.90;;;;;;4752914;30;20036;-90
2023/10/28 10:22:35;;;;;;;3.35;1.10;;;14.40;99.90;;;;;;4752936;30;20389;-90
2023/10/28 10:25:01;;;;;;;2.90;1.20;;;14.50;99.90;;;;;;4752537;30;20070;-89
2023/10/28 10:27:35;;;;;;;3.80;1.40;;;14.50;99.90;;;;;;4752717;30;20032;-90
2023/10/28 10:30:08;;;;;;;3.60;1.17;;;14.60;99.90;;;;;;4737870;30;20042;-89
2023/10/28 10:33:00;;;;;;;3.08;1.15;;;14.60;99.90;;;;;;4723455;30;20090;-92
2023/10/28 10:35:30;;;;;;;4.53;1.38;;;14.70;99.90;;;;;;4718949;30;20078;-90
2023/10/28 10:38:10;;;;;;;2.28;0.98;;;14.70;99.90;;;;;;4743206;30;20046;-91
2023/10/28 10:40:41;;;;;;;4.15;1.48;;;14.70;99.90;;;;;;4773582;30;20046;-91
2023/10/28 10:43:11;;;;;;;3.83;1.35;;;14.70;99.90;;;;;;4774888;30;20101;-91
2023/10/28 10:45:36;;;;;;;4.55;1.20;;;14.70;99.90;;;;;;4756655;30;20101;-88
2023/10/28 10:48:09;;;;;;;3.90;1.52;;;14.70;99.90;;;;;;4751174;30;20032;-89
2023/10/28 10:50:36;;;;;;;5.05;1.45;;;14.70;99.90;;;;;;4750027;30;20147;-91
2023/10/28 10:53:03;;;;;;;4.32;1.40;;;14.80;99.90;;;;;;4757442;30;20067;-90
2023/10/28 10:55:30;;;;;;;3.53;1.15;;;14.80;99.90;;;;;;4767669;30;20040;-90
2023/10/28 10:57:56;;;;;;;3.92;1.10;;;14.70;99.90;;;;;;4755978;30;20040;-88
2023/10/28 11:00:26;;;;;;;3.40;0.98;;;14.80;99.90;;;;;;4773149;30;20431;-90
2023/10/28 11:02:57;;;;;;;6.63;1.07;;;14.80;99.90;;;;;;4774388;30;20071;-91
2023/10/28 11:05:23;;;;;;;2.88;1.20;;;14.80;99.90;;;;;;4758529;30;20355;-90
2023/10/28 11:07:50;;;;;;;3.22;1.20;;;14.80;99.90;;;;;;4766415;30;20024;-89
2023/10/28 11:10:16;;;;;;;3.90;1.00;;;14.80;99.90;;;;;;4740870;30;20040;-91
2023/10/28 11:12:44;;;;;;;4.25;1.20;;;14.80;99.90;;;;;;4754929;30;20127;-91
2023/10/28 11:15:12;;;;;;;2.88;1.00;;;14.90;99.90;;;;;;4756137;30;20093;-89
2023/10/28 11:17:39;;;;;;;4.13;1.17;;;14.80;99.90;;;;;;4746289;30;20036;-90
2023/10/28 11:20:06;;;;;;;3.97;1.35;;;14.80;99.90;;;;;;4749658;30;20448;-91
2023/10/28 11:22:32;;;;;;;3.85;1.20;;;14.80;99.90;;;;;;4756032;30;20028;-92
2023/10/28 11:24:59;;;;;;;4.38;1.15;;;14.90;99.90;;;;;;4754639;30;20553;-91
2023/10/28 11:27:26;;;;;;;5.50;1.38;;;14.90;99.90;;;;;;4766844;30;20036;-91
2023/10/28 11:29:57;;;;;;;3.28;1.40;;;14.90;99.90;;;;;;4758127;30;20028;-91
2023/10/28 11:32:23;;;;;;;3.53;1.48;;;14.90;99.90;;;;;;4746585;30;20041;-89
2023/10/28 11:34:54;;;;;;;3.25;1.20;;;14.90;99.90;;;;;;4752946;30;20410;-91
2023/10/28 11:37:23;;;;;;;3.63;1.17;;;14.90;99.90;;;;;;4736413;30;20044;-90
2023/10/28 11:39:49;;;;;;;7.82;1.65;;;15.00;99.90;;;;;;4740200;30;20058;-90
2023/10/28 11:42:16;;;;;;;2.83;1.30;;;15.00;99.90;;;;;;4753949;30;20024;-90
2023/10/28 11:44:48;;;;;;;6.07;1.95;;;15.00;99.90;;;;;;4745205;30;20032;-91
2023/10/28 11:47:14;;;;;;;3.95;1.10;;;14.90;99.90;;;;;;4748452;30;20086;-91
2023/10/28 11:49:39;;;;;;;2.58;1.15;;;14.90;99.90;;;;;;4755575;30;20056;-92
2023/10/28 11:52:05;;;;;;;3.05;1.02;;;14.90;99.90;;;;;;4739693;30;20032;-91
2023/10/28 11:54:34;;;;;;;3.47;1.00;;;14.90;99.90;;;;;;4764272;30;20039;-90
2023/10/28 11:56:59;;;;;;;3.33;1.08;;;15.00;99.90;;;;;;4755114;30;20088;-93
2023/10/28 11:59:25;;;;;;;7.00;1.55;;;14.90;99.90;;;;;;4754673;30;20178;-92
2023/10/28 12:01:53;;;;;;;5.55;1.55;;;14.90;99.90;;;;;;4725212;30;20042;-91
2023/10/28 12:04:24;;;;;;;6.72;1.80;;;15.00;99.90;;;;;;4764977;30;20097;-92
2023/10/28 12:06:50;;;;;;;5.50;1.73;;;15.00;99.90;;;;;;4754561;30;20075;-93
2023/10/28 12:09:16;;;;;;;5.00;1.52;;;15.00;99.90;;;;;;4747050;30;20542;-91
2023/10/28 12:11:42;;;;;;;3.40;1.10;;;15.10;99.90;;;;;;4744021;30;20032;-94
2023/10/28 12:14:10;;;;;;;7.22;2.28;;;15.10;99.90;;;;;;4740152;30;20090;-92
2023/10/28 12:16:42;;;;;;;3.88;1.48;;;15.10;99.90;;;;;;4767430;30;20052;-93
2023/10/28 12:19:08;;;;;;;2.85;1.10;;;15.20;99.90;;;;;;4737077;30;20032;-93
2023/10/28 12:21:35;;;;;;;3.42;1.48;;;15.20;99.90;;;;;;4741729;30;20427;-91
2023/10/28 12:24:01;;;;;;;8.07;1.58;;;15.20;99.90;;;;;;4759894;30;20044;-92
2023/10/28 12:26:27;;;;;;;4.97;1.25;;;15.30;99.90;;;;;;4778419;30;20035;-91
2023/10/28 12:28:53;;;;;;;3.80;1.02;;;15.30;99.90;;;;;;4787354;30;20041;-91
2023/10/28 12:31:22;;;;;;;6.30;1.42;;;15.30;99.90;;;;;;4758984;30;20020;-91
2023/10/28 12:33:48;;;;;;;4.15;1.67;;;15.40;99.90;;;;;;4755564;30;20468;-93
2023/10/28 12:36:16;;;;;;;4.43;1.15;;;15.40;99.90;;;;;;4751331;30;20057;-91
2023/10/28 12:38:44;;;;;;;6.97;1.55;;;15.40;99.90;;;;;;4762265;30;20033;-92
2023/10/28 12:41:10;;;;;;;7.38;1.95;;;15.40;99.90;;;;;;4752265;30;20400;-93
2023/10/28 12:43:35;;;;;;;5.05;1.38;;;15.50;99.90;;;;;;4756421;30;20127;-91
2023/10/28 12:46:01;;;;;;;5.90;1.98;;;15.50;99.90;;;;;;4732118;30;20478;-90
2023/10/28 12:48:30;;;;;;;7.13;2.15;;;15.50;99.90;;;;;;4750695;30;20074;-91